Terminal Aerodrome Forecast
Issued by NWS

Current Version | Previous Version | Text Only | Print | Product List | Glossary Off
Versions: 1 2 3 4 5 6 7 8 9 10 11 12

000
FTUS41 KRNK 190543
TAFLWB
TAF
KLWB 190543Z 1906/2006 VRB03KT P6SM OVC200
     FM191300 04005KT P6SM BKN050 OVC200
     FM191700 09006KT P6SM SCT050 OVC250=

USA.gov is the U.S. government's official web portal to all federal, state and local government web resources and services.